createdAt,value
2022-11-20T00:00:57.158Z,1.04
2022-11-20T00:03:25.331Z,1.00
2022-11-20T00:05:53.170Z,0.96
2022-11-20T00:08:21.379Z,0.94
2022-11-20T00:10:50.851Z,0.93
2022-11-20T00:13:18.756Z,0.94
2022-11-20T00:15:46.763Z,0.82
2022-11-20T00:18:14.723Z,0.94
2022-11-20T00:20:43.452Z,0.89
2022-11-20T00:23:11.234Z,0.89
2022-11-20T00:25:39.283Z,0.81
2022-11-20T00:28:08.466Z,0.93
2022-11-20T00:30:36.457Z,0.93
2022-11-20T00:33:04.640Z,0.97
2022-11-20T00:35:32.522Z,0.89
2022-11-20T00:38:00.385Z,0.87
2022-11-20T00:40:28.313Z,0.99
2022-11-20T00:42:56.212Z,0.98
2022-11-20T00:45:25.562Z,0.86
2022-11-20T00:47:53.647Z,0.90
2022-11-20T00:50:21.414Z,0.97
2022-11-20T00:52:49.280Z,0.87
2022-11-20T00:55:17.200Z,0.91
2022-11-20T00:57:44.989Z,0.90
2022-11-20T01:00:13.436Z,0.78
2022-11-20T01:02:42.679Z,0.80
2022-11-20T01:05:11.730Z,0.78
2022-11-20T01:07:39.624Z,0.72
2022-11-20T01:10:08.595Z,0.71
2022-11-20T01:12:38.116Z,0.72
2022-11-20T01:15:07.075Z,0.66
2022-11-20T01:17:35.013Z,0.79
2022-11-20T01:20:04.453Z,0.75
2022-11-20T01:22:32.327Z,0.77
2022-11-20T01:25:00.246Z,0.75
2022-11-20T01:27:28.105Z,0.84
2022-11-20T01:30:00.960Z,0.71
2022-11-20T01:32:29.183Z,0.91
2022-11-20T01:34:57.193Z,0.82
2022-11-20T01:37:26.609Z,0.84
2022-11-20T01:39:54.348Z,0.86
2022-11-20T01:42:39.751Z,0.81
2022-11-20T01:45:40.973Z,0.81
2022-11-20T01:48:09.259Z,0.89
2022-11-20T01:50:37.321Z,0.82
2022-11-20T01:53:09.853Z,0.89
2022-11-20T01:55:43.817Z,0.79
2022-11-20T01:58:12.189Z,0.76
2022-11-20T02:00:40.045Z,0.76
2022-11-20T02:03:11.204Z,0.72
2022-11-20T02:05:43.882Z,0.76
2022-11-20T02:08:14.606Z,0.74
2022-11-20T02:10:42.475Z,0.69
2022-11-20T02:13:28.116Z,0.79
2022-11-20T02:15:56.323Z,0.70
2022-11-20T02:18:26.110Z,0.69
2022-11-20T02:20:58.147Z,0.72
2022-11-20T02:23:34.210Z,0.78
2022-11-20T02:26:05.562Z,0.75
2022-11-20T02:28:33.539Z,0.80
2022-11-20T02:31:02.797Z,0.64
2022-11-20T02:33:30.578Z,0.71
2022-11-20T02:35:58.537Z,0.74
2022-11-20T02:38:26.730Z,0.78
2022-11-20T02:40:55.827Z,0.72
2022-11-20T02:43:25.862Z,0.64
2022-11-20T02:45:53.705Z,0.66
2022-11-20T02:48:22.405Z,0.64
2022-11-20T02:50:52.324Z,0.55
2022-11-20T02:53:20.543Z,0.66
2022-11-20T02:55:48.337Z,0.68
2022-11-20T02:58:16.256Z,0.67
2022-11-20T03:00:45.520Z,0.56
2022-11-20T03:03:13.298Z,0.67
2022-11-20T03:05:41.495Z,0.58
2022-11-20T03:08:09.432Z,0.49
2022-11-20T03:10:37.365Z,0.63
2022-11-20T03:13:05.343Z,0.53
2022-11-20T03:15:33.205Z,0.56
2022-11-20T03:18:02.473Z,0.50
2022-11-20T03:20:30.362Z,0.61
2022-11-20T03:22:58.240Z,0.57
2022-11-20T03:25:26.145Z,0.58
2022-11-20T03:27:54.208Z,0.52
2022-11-20T03:30:26.272Z,0.57
2022-11-20T03:32:57.203Z,0.63
2022-11-20T03:35:26.735Z,0.57
2022-11-20T03:37:54.680Z,0.49
2022-11-20T03:40:22.654Z,0.47
2022-11-20T03:42:50.487Z,0.51
2022-11-20T03:45:19.926Z,0.52
2022-11-20T03:47:48.381Z,0.58
2022-11-20T03:50:16.773Z,0.55
2022-11-20T03:52:46.137Z,0.53
2022-11-20T03:55:13.964Z,0.59
2022-11-20T03:57:41.922Z,0.55
2022-11-20T04:00:11.009Z,0.58
2022-11-20T04:02:38.968Z,0.56
2022-11-20T04:05:10.647Z,0.53
2022-11-20T04:07:38.804Z,0.60
2022-11-20T04:10:08.971Z,0.68
2022-11-20T04:12:36.809Z,0.60
2022-11-20T04:15:04.967Z,0.42
2022-11-20T04:17:32.838Z,0.39
2022-11-20T04:20:00.656Z,0.38
2022-11-20T04:22:28.682Z,0.27
2022-11-20T04:24:56.532Z,0.24
2022-11-20T04:27:25.811Z,0.31
2022-11-20T04:29:53.686Z,0.25
2022-11-20T04:32:21.460Z,0.37
2022-11-20T04:34:49.359Z,0.41
2022-11-20T04:37:17.228Z,0.33
2022-11-20T04:39:45.082Z,0.38
2022-11-20T04:42:31.346Z,0.40
2022-11-20T04:45:00.608Z,0.38
2022-11-20T04:47:28.593Z,0.37
2022-11-20T04:49:56.376Z,0.39
2022-11-20T04:52:24.286Z,0.47
2022-11-20T04:54:53.890Z,0.47
2022-11-20T04:57:22.066Z,0.36
2022-11-20T04:59:50.000Z,0.45
2022-11-20T05:02:19.568Z,0.47
2022-11-20T05:04:47.415Z,0.45
2022-11-20T05:07:15.361Z,0.49
2022-11-20T05:09:43.241Z,0.47
2022-11-20T05:12:11.185Z,0.50
2022-11-20T05:14:39.169Z,0.43
2022-11-20T05:17:07.239Z,0.33
2022-11-20T05:19:36.496Z,0.39
2022-11-20T05:22:04.397Z,0.42
2022-11-20T05:24:32.200Z,0.47
2022-11-20T05:26:59.939Z,0.46
2022-11-20T05:29:27.784Z,0.46
2022-11-20T05:31:55.639Z,0.45
2022-11-20T05:34:23.469Z,0.45
2022-11-20T05:36:53.175Z,0.48
2022-11-20T05:39:21.276Z,0.45
2022-11-20T05:42:09.665Z,0.50
2022-11-20T05:44:37.614Z,0.50
2022-11-20T05:47:05.707Z,0.50
2022-11-20T05:49:33.637Z,0.60
2022-11-20T05:52:02.870Z,0.56
2022-11-20T05:54:30.722Z,0.55
2022-11-20T05:56:58.897Z,0.55
2022-11-20T05:59:26.746Z,0.53
2022-11-20T06:01:54.732Z,0.50
2022-11-20T06:04:22.430Z,0.53
2022-11-20T06:06:50.377Z,0.50
2022-11-20T06:09:19.752Z,0.56
2022-11-20T06:11:47.780Z,0.49
2022-11-20T06:14:15.578Z,0.51
2022-11-20T06:16:43.354Z,0.50
2022-11-20T06:19:11.141Z,0.59
2022-11-20T06:21:39.059Z,0.53
2022-11-20T06:24:07.593Z,0.53
2022-11-20T06:26:36.769Z,0.52
2022-11-20T06:29:05.011Z,0.53
2022-11-20T06:31:35.791Z,0.57
2022-11-20T06:34:03.695Z,0.61
2022-11-20T06:36:31.577Z,0.56
2022-11-20T06:38:59.404Z,0.49
2022-11-20T06:41:27.365Z,0.49
2022-11-20T06:43:56.808Z,0.57
2022-11-20T06:46:24.745Z,0.59
2022-11-20T06:48:52.851Z,0.47
2022-11-20T06:51:20.750Z,0.47
2022-11-20T06:53:48.560Z,0.55
2022-11-20T06:56:16.367Z,0.57
2022-11-20T06:58:44.383Z,0.63
2022-11-20T07:01:15.624Z,0.72
2022-11-20T07:03:43.985Z,0.69
2022-11-20T07:06:12.064Z,0.78
2022-11-20T07:08:39.909Z,0.79
2022-11-20T07:11:09.005Z,0.79
2022-11-20T07:13:37.170Z,0.76
2022-11-20T07:16:07.306Z,0.81
2022-11-20T07:18:36.757Z,0.84
2022-11-20T07:21:04.860Z,0.77
2022-11-20T07:23:33.045Z,0.81
2022-11-20T07:26:05.031Z,0.77
2022-11-20T07:28:32.928Z,0.74
2022-11-20T07:31:00.831Z,0.74
2022-11-20T07:33:28.890Z,0.76
2022-11-20T07:36:00.114Z,0.72
2022-11-20T07:38:28.058Z,0.67
2022-11-20T07:40:57.023Z,0.63
2022-11-20T07:43:24.946Z,0.63
2022-11-20T07:45:53.077Z,0.81
2022-11-20T07:48:21.019Z,0.73
2022-11-20T07:50:48.840Z,0.85
2022-11-20T07:53:21.644Z,0.78
2022-11-20T07:55:50.152Z,0.81
2022-11-20T07:58:18.044Z,0.98
2022-11-20T08:00:45.789Z,0.81
2022-11-20T08:03:13.985Z,0.97
2022-11-20T08:05:41.842Z,0.96
2022-11-20T08:08:09.739Z,0.98
2022-11-20T08:10:39.098Z,1.03
2022-11-20T08:13:24.154Z,1.15
2022-11-20T08:15:52.958Z,1.09
2022-11-20T08:18:31.125Z,1.07
2022-11-20T08:20:59.971Z,1.02
2022-11-20T08:23:27.735Z,1.16
2022-11-20T08:25:56.953Z,1.19
2022-11-20T08:28:24.899Z,1.19
2022-11-20T08:30:52.986Z,1.23
2022-11-20T08:33:20.872Z,1.34
2022-11-20T08:35:48.782Z,1.40
2022-11-20T08:38:16.598Z,1.42
2022-11-20T08:41:05.195Z,1.44
2022-11-20T08:43:34.539Z,1.34
2022-11-20T08:46:02.574Z,1.27
2022-11-20T08:48:30.662Z,1.14
2022-11-20T08:51:00.950Z,1.15
2022-11-20T08:53:28.780Z,1.13
2022-11-20T08:55:56.801Z,1.21
2022-11-20T08:58:24.974Z,1.27
2022-11-20T09:00:54.431Z,1.35
2022-11-20T09:03:32.679Z,1.49
2022-11-20T09:06:01.658Z,1.42
2022-11-20T09:08:30.662Z,1.45
2022-11-20T09:10:59.353Z,1.60
2022-11-20T09:13:29.073Z,1.54
2022-11-20T09:15:59.480Z,1.55
2022-11-20T09:18:29.285Z,1.52
2022-11-20T09:20:59.724Z,1.65
2022-11-20T09:23:28.209Z,1.63
2022-11-20T09:26:00.496Z,1.62
2022-11-20T09:28:28.408Z,1.61
2022-11-20T09:30:56.269Z,1.41
2022-11-20T09:33:25.553Z,1.34
2022-11-20T09:35:53.583Z,1.38
2022-11-20T09:38:21.414Z,1.43
2022-11-20T09:40:57.541Z,1.51
2022-11-20T09:43:35.755Z,1.46
2022-11-20T09:46:11.059Z,1.51
2022-11-20T09:48:52.132Z,1.57
2022-11-20T09:51:32.592Z,1.54
2022-11-20T09:54:13.395Z,1.66
2022-11-20T09:56:44.898Z,1.80
2022-11-20T09:59:25.929Z,1.71
2022-11-20T10:01:54.699Z,1.74
2022-11-20T10:04:24.988Z,1.73
2022-11-20T10:07:30.798Z,1.77
2022-11-20T10:09:56.905Z,1.82
2022-11-20T10:12:33.841Z,1.88
2022-11-20T10:15:14.839Z,1.85
2022-11-20T10:17:58.059Z,1.78
2022-11-20T10:20:34.709Z,1.81
2022-11-20T10:23:25.846Z,1.67
2022-11-20T10:26:03.037Z,1.70
2022-11-20T10:28:53.993Z,1.65
2022-11-20T10:31:34.134Z,1.65
2022-11-20T10:34:12.191Z,1.67
2022-11-20T10:36:49.078Z,1.62
2022-11-20T10:39:25.679Z,1.58
2022-11-20T10:41:55.093Z,1.65
2022-11-20T10:44:38.320Z,1.63
2022-11-20T10:47:07.149Z,1.67
2022-11-20T10:49:36.603Z,1.65
2022-11-20T10:52:15.148Z,1.94
2022-11-20T10:54:50.076Z,2.03
2022-11-20T10:57:27.237Z,2.11
2022-11-20T11:00:03.965Z,2.15
2022-11-20T11:02:41.423Z,2.04
2022-11-20T11:05:34.244Z,2.10
2022-11-20T11:08:05.219Z,1.94
2022-11-20T11:10:42.298Z,1.99
2022-11-20T11:13:21.857Z,2.01
2022-11-20T11:15:49.733Z,2.19
2022-11-20T11:18:26.183Z,2.35
2022-11-20T11:20:55.825Z,2.42
2022-11-20T11:23:37.347Z,2.55
2022-11-20T11:26:08.563Z,2.41
2022-11-20T11:28:36.682Z,2.57
2022-11-20T11:31:04.516Z,2.40
2022-11-20T11:33:35.156Z,2.43
2022-11-20T11:36:05.782Z,2.46
2022-11-20T11:38:38.805Z,2.56
2022-11-20T11:41:08.483Z,2.48
2022-11-20T11:43:56.235Z,2.34
2022-11-20T11:46:31.717Z,2.44
2022-11-20T11:49:01.106Z,2.41
2022-11-20T11:51:35.371Z,2.51
2022-11-20T11:54:14.821Z,2.56
2022-11-20T11:56:43.501Z,2.42
2022-11-20T11:59:18.980Z,2.48
2022-11-20T12:01:53.439Z,2.43
2022-11-20T12:04:28.793Z,2.43
2022-11-20T12:07:18.351Z,2.45
2022-11-20T12:09:56.629Z,2.34
2022-11-20T12:12:29.576Z,2.27
2022-11-20T12:14:59.022Z,2.31
2022-11-20T12:17:27.037Z,2.34
2022-11-20T12:19:54.929Z,2.42
2022-11-20T12:22:34.648Z,2.44
2022-11-20T12:25:09.578Z,2.55
2022-11-20T12:28:09.981Z,2.54
2022-11-20T12:30:49.492Z,2.48
2022-11-20T12:33:30.780Z,2.53
2022-11-20T12:36:11.101Z,2.52
2022-11-20T12:38:55.245Z,2.62
2022-11-20T12:41:59.490Z,2.65
2022-11-20T12:45:03.230Z,2.57
2022-11-20T12:47:41.267Z,2.61
2022-11-20T12:50:17.977Z,2.67
2022-11-20T12:52:51.012Z,2.65
2022-11-20T12:55:29.911Z,2.67
2022-11-20T12:58:04.720Z,2.59
2022-11-20T13:00:35.305Z,2.44
2022-11-20T13:03:30.030Z,2.35
2022-11-20T13:06:06.813Z,2.31
2022-11-20T13:08:37.025Z,2.08
2022-11-20T13:11:15.073Z,2.04
2022-11-20T13:14:05.427Z,2.03
2022-11-20T13:16:42.205Z,2.00
2022-11-20T13:19:13.298Z,1.95
2022-11-20T13:21:43.632Z,1.99
2022-11-20T13:24:25.413Z,2.12
2022-11-20T13:27:06.847Z,2.15
2022-11-20T13:29:37.768Z,2.07
2022-11-20T13:32:15.919Z,2.11
2022-11-20T13:34:54.772Z,2.16
2022-11-20T13:37:31.671Z,2.20
2022-11-20T13:40:25.145Z,2.19
2022-11-20T13:43:09.691Z,2.23
2022-11-20T13:45:38.903Z,2.32
2022-11-20T13:48:21.568Z,2.45
2022-11-20T13:51:00.218Z,2.45
2022-11-20T13:53:43.999Z,2.41
2022-11-20T13:56:21.707Z,2.36
2022-11-20T13:59:05.166Z,2.31
2022-11-20T14:01:35.730Z,2.21
2022-11-20T14:04:10.228Z,2.16
2022-11-20T14:06:45.268Z,2.21
2022-11-20T14:09:14.714Z,2.12
2022-11-20T14:11:49.056Z,2.20
2022-11-20T14:14:20.163Z,2.19
2022-11-20T14:16:51.073Z,2.08
2022-11-20T14:19:28.909Z,2.21
2022-11-20T14:22:09.177Z,2.10
2022-11-20T14:24:37.543Z,2.01
2022-11-20T14:27:05.775Z,2.12
2022-11-20T14:29:37.974Z,2.18
2022-11-20T14:32:07.560Z,2.12
2022-11-20T14:34:41.461Z,2.11
2022-11-20T14:37:17.031Z,2.06
2022-11-20T14:39:53.973Z,2.08
2022-11-20T14:42:24.580Z,2.10
2022-11-20T14:44:54.674Z,2.00
2022-11-20T14:47:26.810Z,1.99
2022-11-20T14:49:57.031Z,2.00
2022-11-20T14:52:26.707Z,2.03
2022-11-20T14:54:55.821Z,2.03
2022-11-20T14:57:27.016Z,1.95
2022-11-20T15:00:07.754Z,1.82
2022-11-20T15:02:40.918Z,1.79
2022-11-20T15:05:09.253Z,1.79
2022-11-20T15:07:39.193Z,1.69
2022-11-20T15:10:10.179Z,1.72
2022-11-20T15:12:42.270Z,1.69
2022-11-20T15:15:14.401Z,1.68
2022-11-20T15:17:43.985Z,1.65
2022-11-20T15:20:16.103Z,1.68
2022-11-20T15:22:44.225Z,1.65
2022-11-20T15:25:16.540Z,1.72
2022-11-20T15:27:44.931Z,1.77
2022-11-20T15:30:18.024Z,1.74
2022-11-20T15:32:48.154Z,1.70
2022-11-20T15:35:17.428Z,1.75
2022-11-20T15:37:45.417Z,1.73
2022-11-20T15:40:13.853Z,1.79
2022-11-20T15:43:02.506Z,1.75
2022-11-20T15:45:33.058Z,1.81
2022-11-20T15:48:03.496Z,1.81
2022-11-20T15:50:38.494Z,1.81
2022-11-20T15:53:06.792Z,1.80
2022-11-20T15:55:34.634Z,1.79
2022-11-20T15:58:02.356Z,1.76
2022-11-20T16:00:31.288Z,1.86
2022-11-20T16:02:59.069Z,1.83
2022-11-20T16:05:30.564Z,1.77
2022-11-20T16:07:58.673Z,1.76
2022-11-20T16:10:26.539Z,1.74
2022-11-20T16:13:12.010Z,1.65
2022-11-20T16:15:49.020Z,1.60
2022-11-20T16:18:19.188Z,1.50
2022-11-20T16:20:50.565Z,1.39
2022-11-20T16:23:18.861Z,1.30
2022-11-20T16:25:46.943Z,1.20
2022-11-20T16:28:18.898Z,1.04
2022-11-20T16:30:47.407Z,1.07
2022-11-20T16:33:17.933Z,1.05
2022-11-20T16:35:46.226Z,1.04
2022-11-20T16:38:15.386Z,0.96
2022-11-20T16:40:43.237Z,0.85
2022-11-20T16:43:13.102Z,0.81
2022-11-20T16:45:44.834Z,0.70
2022-11-20T16:48:17.975Z,0.82
2022-11-20T16:50:50.478Z,0.71
2022-11-20T16:53:20.889Z,0.69
2022-11-20T16:55:49.212Z,0.77
2022-11-20T16:58:17.284Z,0.69
2022-11-20T17:00:51.206Z,0.67
2022-11-20T17:03:20.952Z,0.65
2022-11-20T17:05:48.947Z,0.63
2022-11-20T17:08:16.775Z,0.73
2022-11-20T17:10:46.176Z,0.71
2022-11-20T17:13:14.147Z,0.73
2022-11-20T17:15:42.049Z,0.63
2022-11-20T17:18:09.921Z,0.53
2022-11-20T17:20:37.868Z,0.61
2022-11-20T17:23:05.685Z,0.59
2022-11-20T17:25:34.825Z,0.53
2022-11-20T17:28:04.037Z,0.53
2022-11-20T17:30:32.000Z,0.63
2022-11-20T17:32:59.935Z,0.68
2022-11-20T17:35:27.827Z,0.78
2022-11-20T17:37:55.661Z,0.86
2022-11-20T17:40:27.352Z,0.84
2022-11-20T17:42:55.830Z,0.82
2022-11-20T17:45:25.042Z,0.80
2022-11-20T17:47:52.812Z,0.89
2022-11-20T17:50:20.834Z,0.88
2022-11-20T17:52:48.692Z,0.98
2022-11-20T17:55:16.653Z,1.03
2022-11-20T17:57:58.213Z,1.03
2022-11-20T18:00:28.370Z,1.11
2022-11-20T18:02:56.838Z,0.98
2022-11-20T18:05:24.594Z,0.98
2022-11-20T18:07:54.231Z,1.06
2022-11-20T18:10:22.169Z,1.02
2022-11-20T18:12:50.340Z,1.02
2022-11-20T18:15:18.176Z,1.08
2022-11-20T18:17:47.427Z,1.07
2022-11-20T18:20:29.435Z,0.96
2022-11-20T18:23:00.159Z,0.94
2022-11-20T18:25:28.098Z,0.86
2022-11-20T18:27:56.433Z,0.77
2022-11-20T18:30:24.397Z,0.66
2022-11-20T18:32:53.736Z,0.66
2022-11-20T18:35:22.576Z,0.66
2022-11-20T18:37:53.676Z,0.71
2022-11-20T18:40:21.591Z,0.72
2022-11-20T18:43:08.689Z,0.67
2022-11-20T18:45:39.102Z,0.61
2022-11-20T18:48:08.441Z,0.55
2022-11-20T18:50:36.418Z,0.40
2022-11-20T18:53:04.648Z,0.48
2022-11-20T18:55:33.005Z,0.54
2022-11-20T18:58:00.818Z,0.49
2022-11-20T19:00:28.589Z,0.41
2022-11-20T19:02:56.769Z,0.33
2022-11-20T19:05:26.412Z,0.29
2022-11-20T19:07:54.667Z,0.32
2022-11-20T19:10:24.467Z,0.19
2022-11-20T19:12:52.617Z,0.13
2022-11-20T19:15:20.526Z,0.20
2022-11-20T19:17:48.409Z,0.11
2022-11-20T19:20:16.375Z,0.23
2022-11-20T19:22:45.783Z,0.20
2022-11-20T19:25:13.936Z,0.28
2022-11-20T19:27:42.016Z,0.24
2022-11-20T19:30:11.183Z,0.19
2022-11-20T19:32:39.299Z,0.25
2022-11-20T19:35:07.651Z,0.17
2022-11-20T19:37:36.486Z,0.20
2022-11-20T19:40:06.281Z,0.07
2022-11-20T19:42:34.175Z,0.08
2022-11-20T19:45:03.446Z,0.15
2022-11-20T19:50:24.366Z,0.22
2022-11-20T19:52:58.365Z,0.24
2022-11-20T19:55:28.311Z,0.31
2022-11-20T19:58:00.394Z,0.42
2022-11-20T20:00:32.547Z,0.36
2022-11-20T20:03:01.143Z,0.39
2022-11-20T20:05:29.079Z,0.33
2022-11-20T20:07:57.212Z,0.35
2022-11-20T20:10:25.297Z,0.37
2022-11-20T20:12:54.683Z,0.40
2022-11-20T20:15:22.554Z,0.44
2022-11-20T20:17:52.770Z,0.35
2022-11-20T20:20:21.241Z,0.37
2022-11-20T20:22:49.520Z,0.29
2022-11-20T20:25:20.427Z,0.18
2022-11-20T20:27:48.366Z,0.27
2022-11-20T20:30:18.403Z,0.14
2022-11-20T20:32:46.382Z,0.08
2022-11-20T20:35:14.534Z,-0.03
2022-11-20T20:37:42.542Z,0.04
2022-11-20T20:40:15.087Z,-0.12
2022-11-20T20:42:43.429Z,-0.13
2022-11-20T20:45:14.511Z,-0.24
2022-11-20T20:47:43.661Z,-0.20
2022-11-20T20:50:13.245Z,-0.30
2022-11-20T20:52:41.544Z,-0.41
2022-11-20T20:55:10.491Z,-0.35
2022-11-20T20:57:38.422Z,-0.34
2022-11-20T21:00:07.683Z,-0.44
2022-11-20T21:02:35.741Z,-0.53
2022-11-20T21:05:05.632Z,-0.40
2022-11-20T21:07:33.395Z,-0.50
2022-11-20T21:10:01.309Z,-0.60
2022-11-20T21:12:29.115Z,-0.57
2022-11-20T21:14:57.006Z,-0.62
2022-11-20T21:17:25.012Z,-0.73
2022-11-20T21:19:52.846Z,-0.83
2022-11-20T21:22:21.125Z,-0.80
2022-11-20T21:24:49.018Z,-0.82
2022-11-20T21:27:17.133Z,-0.74
2022-11-20T21:29:45.030Z,-0.76
2022-11-20T21:32:12.921Z,-0.79
2022-11-20T21:34:41.001Z,-0.78
2022-11-20T21:37:08.979Z,-0.99
2022-11-20T21:39:50.482Z,-0.90
2022-11-20T21:42:18.580Z,-0.92
2022-11-20T21:44:47.441Z,-0.96
2022-11-20T21:47:15.400Z,-0.95
2022-11-20T21:49:43.294Z,-0.95
2022-11-20T21:52:11.148Z,-1.03
2022-11-20T21:54:40.685Z,-1.06
2022-11-20T21:57:08.614Z,-0.99
2022-11-20T21:59:37.506Z,-0.92
2022-11-20T22:02:05.532Z,-1.09
2022-11-20T22:04:33.349Z,-1.14
2022-11-20T22:07:01.251Z,-1.15
2022-11-20T22:09:29.180Z,-1.13
2022-11-20T22:11:58.875Z,-1.18
2022-11-20T22:14:26.285Z,-1.19
2022-11-20T22:16:55.359Z,-1.18
2022-11-20T22:19:24.502Z,-1.09
2022-11-20T22:21:52.523Z,-1.15
2022-11-20T22:24:22.217Z,-1.26
2022-11-20T22:26:50.888Z,-1.23
2022-11-20T22:29:21.990Z,-1.20
2022-11-20T22:31:53.055Z,-1.25
2022-11-20T22:34:21.085Z,-1.24
2022-11-20T22:36:51.593Z,-1.49
2022-11-20T22:39:22.661Z,-1.37
2022-11-20T22:41:50.691Z,-1.35
2022-11-20T22:44:20.032Z,-1.42
2022-11-20T22:46:48.113Z,-1.50
2022-11-20T22:49:15.913Z,-1.43
2022-11-20T22:51:43.752Z,-1.46
2022-11-20T22:54:13.123Z,-1.51
2022-11-20T22:56:41.381Z,-1.45
2022-11-20T22:59:10.159Z,-1.38
2022-11-20T23:01:39.572Z,-1.39
2022-11-20T23:04:10.611Z,-1.42
2022-11-20T23:06:38.702Z,-1.33
2022-11-20T23:09:08.273Z,-1.26
2022-11-20T23:11:36.364Z,-1.20
2022-11-20T23:14:09.183Z,-1.07
2022-11-20T23:16:37.226Z,-1.13
2022-11-20T23:19:09.046Z,-1.00
2022-11-20T23:21:39.334Z,-0.97
2022-11-20T23:24:08.590Z,-0.93
2022-11-20T23:26:39.343Z,-0.90
2022-11-20T23:29:07.655Z,-0.91
2022-11-20T23:31:36.666Z,-0.80
2022-11-20T23:34:06.529Z,-0.83
2022-11-20T23:36:34.686Z,-0.76
2022-11-20T23:39:02.703Z,-0.72
2022-11-20T23:41:30.926Z,-0.69
2022-11-20T23:43:58.975Z,-0.71
2022-11-20T23:46:26.943Z,-0.76
2022-11-20T23:48:54.922Z,-0.73
2022-11-20T23:51:24.082Z,-0.85
2022-11-20T23:53:52.126Z,-0.70
2022-11-20T23:56:19.945Z,-0.65
2022-11-20T23:58:47.810Z,-0.57
